createdAt,value
2018-05-10T00:00:35.612Z,98921.81
2018-05-10T00:03:02.868Z,98955.00
2018-05-10T00:05:29.234Z,98957.23
2018-05-10T00:07:55.657Z,98956.57
2018-05-10T00:10:22.674Z,98953.64
2018-05-10T00:12:48.977Z,98952.23
2018-05-10T00:15:15.331Z,98957.31
2018-05-10T00:17:41.679Z,98955.88
2018-05-10T00:20:08.081Z,98959.09
2018-05-10T00:22:34.436Z,98959.56
2018-05-10T00:25:00.845Z,98958.20
2018-05-10T00:27:27.161Z,98959.44
2018-05-10T00:29:53.589Z,98957.29
2018-05-10T00:32:19.948Z,98959.93
2018-05-10T00:34:46.307Z,98950.97
2018-05-10T00:37:12.612Z,98952.20
2018-05-10T00:39:38.956Z,98957.72
2018-05-10T00:42:06.072Z,98948.00
2018-05-10T00:44:32.391Z,98957.60
2018-05-10T00:46:58.733Z,98951.46
2018-05-10T00:49:25.097Z,98968.52
2018-05-10T00:51:52.163Z,98964.77
2018-05-10T00:54:37.156Z,98957.45
2018-05-10T00:57:03.499Z,98970.61
2018-05-10T00:59:29.865Z,98967.97
2018-05-10T01:01:56.274Z,98969.05
2018-05-10T01:04:22.609Z,98959.84
2018-05-10T01:06:48.996Z,98960.38
2018-05-10T01:09:16.066Z,98961.45
2018-05-10T01:11:42.415Z,98952.89
2018-05-10T01:14:08.747Z,98954.27
2018-05-10T01:16:35.066Z,98952.07
2018-05-10T01:19:01.507Z,98949.39
2018-05-10T01:21:27.834Z,98954.06
2018-05-10T01:23:54.197Z,98949.34
2018-05-10T01:26:20.625Z,98951.85
2018-05-10T01:28:46.952Z,98953.95
2018-05-10T01:31:13.376Z,98952.59
2018-05-10T01:33:39.731Z,98952.17
2018-05-10T01:36:12.128Z,98947.73
2018-05-10T01:38:39.159Z,98949.84
2018-05-10T01:41:05.540Z,98943.48
2018-05-10T01:43:31.870Z,98945.55
2018-05-10T01:45:58.279Z,98952.29
2018-05-10T01:48:25.336Z,98955.14
2018-05-10T01:50:51.648Z,98954.81
2018-05-10T01:53:18.697Z,98951.55
2018-05-10T01:55:46.094Z,98952.83
2018-05-10T01:58:12.388Z,98956.80
2018-05-10T02:00:39.517Z,98945.26
2018-05-10T02:03:05.829Z,98947.91
2018-05-10T02:05:32.156Z,98944.77
2018-05-10T02:07:58.527Z,98950.92
2018-05-10T02:10:25.655Z,98962.00
2018-05-10T02:12:51.978Z,98968.64
2018-05-10T02:15:18.296Z,98962.89
2018-05-10T02:17:44.662Z,98964.08
2018-05-10T02:20:10.965Z,98962.34
2018-05-10T02:22:37.327Z,98963.85
2018-05-10T02:25:04.415Z,98966.28
2018-05-10T02:27:30.772Z,98962.12
2018-05-10T02:29:57.096Z,98963.77
2018-05-10T02:32:23.414Z,98963.33
2018-05-10T02:34:49.746Z,98960.11
2018-05-10T02:37:16.108Z,98955.23
2018-05-10T02:39:42.442Z,98956.31
2018-05-10T02:42:08.951Z,98955.20
2018-05-10T02:44:35.325Z,98949.73
2018-05-10T02:47:01.729Z,98949.73
2018-05-10T02:49:28.076Z,98954.06
2018-05-10T02:51:54.406Z,98957.83
2018-05-10T02:54:20.888Z,98949.19
2018-05-10T02:56:47.256Z,98957.56
2018-05-10T02:59:13.573Z,98957.81
2018-05-10T03:01:39.912Z,98961.04
2018-05-10T03:04:06.213Z,98958.27
2018-05-10T03:06:32.552Z,98960.58
2018-05-10T03:08:58.904Z,98964.87
2018-05-10T03:11:25.210Z,98960.58
2018-05-10T03:13:51.556Z,98958.45
2018-05-10T03:16:17.863Z,98957.14
2018-05-10T03:18:44.960Z,98958.38
2018-05-10T03:21:11.283Z,98962.84
2018-05-10T03:23:37.619Z,98960.94
2018-05-10T03:26:03.918Z,98963.53
2018-05-10T03:28:30.280Z,98963.28
2018-05-10T03:30:56.582Z,98960.22
2018-05-10T03:33:22.951Z,98965.26
2018-05-10T03:35:49.539Z,98961.00
2018-05-10T03:38:15.895Z,98961.81
2018-05-10T03:40:42.210Z,98965.37
2018-05-10T03:43:08.568Z,98969.88
2018-05-10T03:45:34.905Z,98964.02
2018-05-10T03:48:01.245Z,98973.77
2018-05-10T03:50:27.616Z,98967.08
2018-05-10T03:52:54.677Z,98968.20
2018-05-10T03:55:20.973Z,98962.84
2018-05-10T03:57:47.299Z,98959.33
2018-05-10T04:00:13.646Z,98962.55
2018-05-10T04:06:34.019Z,98965.63
2018-05-10T04:09:18.818Z,98966.75
2018-05-10T04:11:45.137Z,98969.28
2018-05-10T04:14:11.497Z,98971.52
2018-05-10T04:16:37.831Z,98972.13
2018-05-10T04:19:04.860Z,98979.31
2018-05-10T04:21:31.169Z,98980.09
2018-05-10T04:23:57.514Z,98974.09
2018-05-10T04:26:23.814Z,98977.76
2018-05-10T04:28:50.177Z,98976.62
2018-05-10T04:46:52.788Z,98985.69
2018-05-10T04:49:19.887Z,98980.82
2018-05-10T04:51:46.214Z,98979.27
2018-05-10T05:09:13.083Z,98986.70
2018-05-10T05:11:39.439Z,98985.34
2018-05-10T05:14:05.730Z,98983.23
2018-05-10T05:16:32.020Z,98992.56
2018-05-10T05:18:59.052Z,98984.94
2018-05-10T05:21:25.451Z,98986.19
2018-05-10T05:23:51.707Z,98987.20
2018-05-10T05:26:18.059Z,98990.50
2018-05-10T05:28:45.120Z,98997.28
2018-05-10T05:31:11.568Z,98981.94
2018-05-10T05:33:37.965Z,98982.73
2018-05-10T05:36:04.322Z,98986.34
2018-05-10T05:38:30.672Z,98997.23
2018-05-10T05:40:57.057Z,98995.69
2018-05-10T05:43:24.281Z,98997.64
2018-05-10T05:45:50.529Z,98996.20
2018-05-10T05:48:16.871Z,98989.26
2018-05-10T05:50:43.987Z,98997.16
2018-05-10T05:53:10.322Z,99000.75
2018-05-10T05:55:36.641Z,98993.66
2018-05-10T05:58:02.984Z,99004.05
2018-05-10T06:00:29.336Z,98997.23
2018-05-10T06:02:55.678Z,98999.29
2018-05-10T06:05:22.743Z,99003.13
2018-05-10T06:07:49.799Z,99011.63
2018-05-10T06:10:16.194Z,99013.76
2018-05-10T06:12:42.575Z,99007.10
2018-05-10T06:15:08.960Z,99012.70
2018-05-10T06:17:35.585Z,99014.88
2018-05-10T06:20:02.002Z,99014.88
2018-05-10T06:22:28.332Z,99020.40
2018-05-10T06:24:54.712Z,99017.90
2018-05-10T06:27:21.059Z,99016.19
2018-05-10T06:29:48.147Z,99010.73
2018-05-10T06:32:14.522Z,99014.23
2018-05-10T06:34:40.912Z,99019.69
2018-05-10T06:37:07.314Z,99033.78
2018-05-10T06:39:33.690Z,99026.12
2018-05-10T06:42:00.024Z,99029.86
2018-05-10T06:44:26.400Z,99034.14
2018-05-10T06:46:52.741Z,99029.83
2018-05-10T06:49:20.054Z,99033.20
2018-05-10T06:51:46.452Z,99032.42
2018-05-10T06:54:24.490Z,99038.95
2018-05-10T06:56:51.092Z,99036.88
2018-05-10T07:05:23.510Z,99027.87
2018-05-10T07:07:49.842Z,99039.98
2018-05-10T07:10:16.280Z,99044.33
2018-05-10T07:12:45.906Z,99043.41
2018-05-10T07:15:12.236Z,99039.19
2018-05-10T07:17:38.538Z,99034.63
2018-05-10T07:20:04.889Z,99043.14
2018-05-10T07:22:31.509Z,99037.61
2018-05-10T07:24:57.943Z,99037.84
2018-05-10T07:27:24.228Z,99036.03
2018-05-10T07:29:51.316Z,99036.45
2018-05-10T07:32:17.641Z,99042.56
2018-05-10T07:34:43.995Z,99039.02
2018-05-10T07:37:24.215Z,99036.27
2018-05-10T07:39:50.509Z,99036.42
2018-05-10T07:42:16.867Z,99037.55
2018-05-10T07:44:43.947Z,99042.44
2018-05-10T07:47:10.344Z,99043.26
2018-05-10T07:49:37.426Z,99048.11
2018-05-10T07:52:04.010Z,99049.81
2018-05-10T07:54:40.224Z,99056.96
2018-05-10T07:57:06.553Z,99055.33
2018-05-10T07:59:33.039Z,99062.39
2018-05-10T08:01:59.389Z,99051.32
2018-05-10T08:04:47.467Z,99051.50
2018-05-10T08:07:13.865Z,99061.25
2018-05-10T08:09:41.187Z,99053.31
2018-05-10T08:12:07.534Z,99057.40
2018-05-10T08:14:33.823Z,99054.66
2018-05-10T08:17:00.321Z,99058.73
2018-05-10T08:19:27.434Z,99054.38
2018-05-10T08:21:53.798Z,99059.29
2018-05-10T08:24:20.798Z,99060.88
2018-05-10T08:26:47.115Z,99061.05
2018-05-10T08:29:13.429Z,99054.40
2018-05-10T08:31:39.876Z,99059.44
2018-05-10T08:34:06.204Z,99053.89
2018-05-10T08:36:32.580Z,99063.33
2018-05-10T08:38:58.894Z,99064.67
2018-05-10T08:41:25.201Z,99074.86
2018-05-10T08:43:51.486Z,99061.92
2018-05-10T08:46:17.817Z,99064.34
2018-05-10T08:48:44.151Z,99066.61
2018-05-10T08:51:10.596Z,99068.79
2018-05-10T08:53:36.962Z,99074.45
2018-05-10T08:56:03.290Z,99071.67
2018-05-10T08:58:29.654Z,99072.91
2018-05-10T09:00:56.130Z,99070.87
2018-05-10T09:03:23.153Z,99069.53
2018-05-10T09:05:49.470Z,99072.67
2018-05-10T09:08:15.790Z,99074.04
2018-05-10T09:10:46.173Z,99076.98
2018-05-10T09:13:12.689Z,99076.81
2018-05-10T09:15:39.040Z,99077.56
2018-05-10T09:18:05.369Z,99081.89
2018-05-10T09:20:32.390Z,99081.72
2018-05-10T09:22:58.718Z,99086.44
2018-05-10T09:25:25.179Z,99085.87
2018-05-10T09:27:52.233Z,99079.90
2018-05-10T09:30:18.493Z,99082.59
2018-05-10T09:32:44.811Z,99090.42
2018-05-10T09:35:11.090Z,99084.55
2018-05-10T09:37:37.827Z,99083.80
2018-05-10T09:40:04.942Z,99090.16
2018-05-10T09:42:31.261Z,99093.78
2018-05-10T09:44:57.621Z,99089.09
2018-05-10T09:47:23.911Z,99089.54
2018-05-10T09:49:51.007Z,99092.88
2018-05-10T09:52:17.348Z,99095.83
2018-05-10T09:54:43.674Z,99100.42
2018-05-10T09:57:10.042Z,99099.85
2018-05-10T09:59:37.092Z,99096.60
2018-05-10T10:02:04.164Z,99107.11
2018-05-10T10:04:30.507Z,99107.38
2018-05-10T10:06:57.600Z,99098.89
2018-05-10T10:09:24.171Z,99107.73
2018-05-10T10:11:50.553Z,99114.45
2018-05-10T10:14:16.879Z,99117.78
2018-05-10T10:16:43.190Z,99116.08
2018-05-10T10:19:09.482Z,99121.42
2018-05-10T10:21:36.616Z,99125.95
2018-05-10T10:24:02.970Z,99124.89
2018-05-10T10:26:29.299Z,99130.69
2018-05-10T10:28:56.369Z,99123.17
2018-05-10T10:31:22.711Z,99126.34
2018-05-10T10:33:49.033Z,99129.49
2018-05-10T10:36:15.362Z,99128.77
2018-05-10T10:38:41.690Z,99121.50
2018-05-10T10:41:08.034Z,99120.70
2018-05-10T10:43:34.587Z,99113.66
2018-05-10T10:46:01.023Z,99118.44
2018-05-10T10:48:27.419Z,99119.84
2018-05-10T10:50:53.822Z,99122.55
2018-05-10T10:53:20.155Z,99115.48
2018-05-10T10:55:46.482Z,99118.50
2018-05-10T10:58:12.809Z,99110.36
2018-05-10T11:00:40.175Z,99108.10
2018-05-10T11:03:07.287Z,99121.55
2018-05-10T11:05:33.716Z,99127.30
2018-05-10T11:08:00.021Z,99117.13
2018-05-10T11:10:26.351Z,99127.87
2018-05-10T11:12:52.674Z,99125.05
2018-05-10T11:15:18.995Z,99122.66
2018-05-10T11:17:45.316Z,99122.49
2018-05-10T11:20:12.196Z,99123.69
2018-05-10T11:22:38.595Z,99126.19
2018-05-10T11:25:04.840Z,99129.21
2018-05-10T11:27:31.900Z,99132.77
2018-05-10T11:29:58.182Z,99129.41
2018-05-10T11:32:24.497Z,99129.78
2018-05-10T11:34:50.789Z,99122.36
2018-05-10T11:37:17.103Z,99127.61
2018-05-10T11:39:44.158Z,99121.91
2018-05-10T11:42:10.535Z,99118.81
2018-05-10T11:44:36.883Z,99117.36
2018-05-10T11:47:03.248Z,99118.13
2018-05-10T11:49:30.311Z,99117.73
2018-05-10T11:51:56.718Z,99106.23
2018-05-10T11:54:23.816Z,99117.70
2018-05-10T11:56:50.176Z,99123.59
2018-05-10T11:59:16.474Z,99115.60
2018-05-10T12:01:42.762Z,99123.31
2018-05-10T12:04:09.052Z,99123.22
2018-05-10T12:06:35.331Z,99126.50
2018-05-10T12:09:02.385Z,99113.27
2018-05-10T12:11:28.627Z,99104.26
2018-05-10T12:13:55.278Z,99101.67
2018-05-10T12:16:21.558Z,99102.80
2018-05-10T12:18:49.302Z,99090.74
2018-05-10T12:21:15.566Z,99085.52
2018-05-10T12:23:42.560Z,99087.02
2018-05-10T12:26:08.833Z,99088.08
2018-05-10T12:28:35.109Z,99080.81
2018-05-10T12:31:01.389Z,99079.55
2018-05-10T12:33:27.670Z,99075.55
2018-05-10T12:35:53.926Z,99080.02
2018-05-10T12:38:20.196Z,99078.70
2018-05-10T12:40:47.178Z,99084.52
2018-05-10T12:43:13.421Z,99094.27
2018-05-10T12:45:39.668Z,99091.69
2018-05-10T12:48:05.914Z,99093.47
2018-05-10T12:50:32.138Z,99089.69
2018-05-10T12:52:58.386Z,99089.99
2018-05-10T12:55:25.370Z,99089.43
2018-05-10T12:57:51.690Z,99091.06
2018-05-10T13:00:17.937Z,99097.31
2018-05-10T13:02:44.241Z,99092.23
2018-05-10T13:05:11.272Z,99099.17
2018-05-10T13:07:38.351Z,99092.89
2018-05-10T13:10:04.677Z,99104.22
2018-05-10T13:12:31.017Z,99101.09
2018-05-10T13:14:57.262Z,99092.83
2018-05-10T13:17:23.563Z,99099.49
2018-05-10T13:19:49.843Z,99100.02
2018-05-10T13:22:17.703Z,99092.74
2018-05-10T13:24:43.983Z,99090.62
2018-05-10T13:27:11.051Z,99089.52
2018-05-10T13:29:38.181Z,99089.22
2018-05-10T13:32:05.632Z,99084.66
2018-05-10T13:34:32.436Z,99087.53
2018-05-10T13:36:59.368Z,99043.11
2018-05-10T13:39:25.766Z,99085.12
2018-05-10T13:41:52.085Z,99093.28
2018-05-10T13:44:19.155Z,99080.64
2018-05-10T13:46:45.479Z,99088.19
2018-05-10T13:49:12.823Z,99087.56
2018-05-10T13:51:39.875Z,99094.83
2018-05-10T13:54:06.906Z,99094.32
2018-05-10T13:56:33.948Z,99094.80
2018-05-10T13:59:00.335Z,99095.64
2018-05-10T14:01:26.668Z,99096.98
2018-05-10T14:03:52.956Z,99100.02
2018-05-10T14:06:20.073Z,99095.97
2018-05-10T14:08:46.449Z,99091.33
2018-05-10T14:11:12.871Z,99089.13
2018-05-10T14:13:39.134Z,99088.27
2018-05-10T14:16:05.494Z,99085.34
2018-05-10T14:18:31.765Z,99095.83
2018-05-10T14:20:58.759Z,99099.77
2018-05-10T14:23:25.034Z,99103.42
2018-05-10T14:25:52.099Z,99113.23
2018-05-10T14:28:18.427Z,99110.26
2018-05-10T14:30:45.507Z,99119.24
2018-05-10T14:33:11.741Z,99122.20
2018-05-10T14:35:38.018Z,99112.94
2018-05-10T14:38:05.056Z,99118.82
2018-05-10T14:40:31.410Z,99117.16
2018-05-10T14:42:58.517Z,99114.73
2018-05-10T14:45:24.820Z,99103.80
2018-05-10T14:47:51.134Z,99115.62
2018-05-10T14:50:17.444Z,99116.01
2018-05-10T14:52:44.469Z,99109.02
2018-05-10T14:55:10.848Z,99117.02
2018-05-10T14:57:37.158Z,99130.02
2018-05-10T15:00:04.200Z,99140.11
2018-05-10T15:02:31.303Z,99146.47
2018-05-10T15:04:57.617Z,99149.03
2018-05-10T15:07:23.875Z,99150.70
2018-05-10T15:09:50.185Z,99149.58
2018-05-10T15:12:16.517Z,99156.66
2018-05-10T15:14:42.783Z,99157.61
2018-05-10T15:17:09.166Z,99166.65
2018-05-10T15:19:35.503Z,99166.17
2018-05-10T15:22:01.775Z,99173.67
2018-05-10T15:24:28.040Z,99173.48
2018-05-10T15:26:54.379Z,99181.39
2018-05-10T15:29:20.719Z,99179.52
2018-05-10T15:31:47.187Z,99173.19
2018-05-10T15:34:13.511Z,99169.73
2018-05-10T15:36:39.802Z,99165.98
2018-05-10T15:39:06.145Z,99172.66
2018-05-10T15:41:33.129Z,99184.34
2018-05-10T15:43:59.408Z,99176.47
2018-05-10T15:46:25.679Z,99183.33
2018-05-10T15:48:51.998Z,99187.97
2018-05-10T15:51:18.274Z,99187.19
2018-05-10T15:53:44.624Z,99185.20
2018-05-10T15:56:11.722Z,99193.73
2018-05-10T15:58:37.995Z,99188.75
2018-05-10T16:01:05.001Z,99186.49
2018-05-10T16:03:31.259Z,99189.09
2018-05-10T16:05:57.539Z,99200.88
2018-05-10T16:08:23.851Z,99209.60
2018-05-10T16:10:50.147Z,99218.75
2018-05-10T16:13:16.442Z,99224.51
2018-05-10T16:15:42.758Z,99241.89
2018-05-10T16:18:09.039Z,99256.57
2018-05-10T16:20:35.296Z,99262.16
2018-05-10T16:23:02.294Z,99274.01
2018-05-10T16:25:28.577Z,99281.83
2018-05-10T16:27:55.574Z,99290.36
2018-05-10T16:30:21.860Z,99298.95
2018-05-10T16:32:48.180Z,99303.59
2018-05-10T16:35:15.164Z,99303.54
2018-05-10T16:37:41.411Z,99297.51
2018-05-10T16:40:07.820Z,99299.77
2018-05-10T16:42:34.100Z,99297.78
2018-05-10T16:45:01.191Z,99302.84
2018-05-10T16:47:27.446Z,99306.91
2018-05-10T16:49:53.853Z,99312.23
2018-05-10T16:52:20.302Z,99307.63
2018-05-10T16:54:46.643Z,99321.27
2018-05-10T16:57:12.893Z,99324.80
2018-05-10T16:59:39.904Z,99322.17
2018-05-10T17:02:06.144Z,99319.78
2018-05-10T17:04:32.392Z,99325.08
2018-05-10T17:06:58.720Z,99317.52
2018-05-10T17:09:25.004Z,99317.88
2018-05-10T17:11:51.273Z,99310.42
2018-05-10T17:14:17.598Z,99310.24
2018-05-10T17:16:43.909Z,99296.97
2018-05-10T17:19:10.148Z,99322.39
2018-05-10T17:21:36.608Z,99327.34
2018-05-10T17:24:02.873Z,99342.80
2018-05-10T17:26:30.080Z,99336.50
2018-05-10T17:28:56.383Z,99352.92
2018-05-10T17:31:22.699Z,99353.33
2018-05-10T17:33:48.928Z,99359.11
2018-05-10T17:36:15.225Z,99352.61
2018-05-10T17:38:41.512Z,99357.02
2018-05-10T17:41:07.858Z,99353.20
2018-05-10T17:43:34.152Z,99360.32
2018-05-10T17:46:00.437Z,99367.95
2018-05-10T17:48:26.737Z,99369.34
2018-05-10T17:50:53.087Z,99370.27
2018-05-10T17:53:19.376Z,99378.25
2018-05-10T17:55:45.625Z,99384.34
2018-05-10T17:58:11.890Z,99389.13
2018-05-10T18:00:38.134Z,99392.39
2018-05-10T18:03:04.397Z,99408.20
2018-05-10T18:05:30.743Z,99413.61
2018-05-10T18:07:57.015Z,99417.16
2018-05-10T18:10:24.047Z,99425.75
2018-05-10T18:12:50.344Z,99430.78
2018-05-10T18:15:16.612Z,99434.91
2018-05-10T18:17:42.891Z,99439.95
2018-05-10T18:20:09.227Z,99445.09
2018-05-10T18:22:35.517Z,99437.28
2018-05-10T18:25:01.901Z,99447.39
2018-05-10T18:27:28.193Z,99455.41
2018-05-10T18:29:55.205Z,99456.42
2018-05-10T18:32:21.500Z,99460.53
2018-05-10T18:34:47.777Z,99468.05
2018-05-10T18:37:14.058Z,99471.04
2018-05-10T18:39:40.588Z,99480.92
2018-05-10T18:42:06.866Z,99482.79
2018-05-10T18:44:33.157Z,99493.02
2018-05-10T18:47:00.196Z,99494.02
2018-05-10T18:49:27.252Z,99510.95
2018-05-10T18:51:53.651Z,99522.78
2018-05-10T18:54:20.079Z,99552.63
2018-05-10T18:56:46.442Z,99558.92
2018-05-10T18:59:13.534Z,99559.22
2018-05-10T19:01:39.830Z,99558.70
2018-05-10T19:04:06.111Z,99566.92
2018-05-10T19:06:32.515Z,99569.52
2018-05-10T19:08:58.828Z,99589.42
2018-05-10T19:11:25.180Z,99591.20
2018-05-10T19:13:52.302Z,99590.93
2018-05-10T19:16:18.628Z,99603.69
2018-05-10T19:18:45.687Z,99598.76
2018-05-10T19:21:12.021Z,99602.80
2018-05-10T19:23:38.381Z,99602.69
2018-05-10T19:26:04.780Z,99603.95
2018-05-10T19:28:31.109Z,99610.88
2018-05-10T19:30:57.462Z,99602.23
2018-05-10T19:33:24.354Z,99608.54
2018-05-10T19:35:50.696Z,99607.69
2018-05-10T19:38:17.793Z,99621.17
2018-05-10T19:40:44.196Z,99614.23
2018-05-10T19:43:10.537Z,99614.33
2018-05-10T19:45:36.859Z,99623.12
2018-05-10T19:48:03.258Z,99626.61
2018-05-10T19:50:29.729Z,99636.63
2018-05-10T19:52:56.150Z,99643.20
2018-05-10T19:55:23.261Z,99646.14
2018-05-10T19:57:49.628Z,99647.20
2018-05-10T20:00:16.681Z,99652.40
2018-05-10T20:02:43.073Z,99653.59
2018-05-10T20:05:09.360Z,99663.84
2018-05-10T20:07:35.739Z,99661.11
2018-05-10T20:10:02.105Z,99659.75
2018-05-10T20:12:29.188Z,99673.83
2018-05-10T20:14:55.538Z,99680.70
2018-05-10T20:17:21.870Z,99686.73
2018-05-10T20:19:48.983Z,99695.69
2018-05-10T20:22:15.268Z,99698.70
2018-05-10T20:24:41.594Z,99706.08
2018-05-10T20:27:07.952Z,99703.73
2018-05-10T20:29:35.907Z,99711.23
2018-05-10T20:32:02.339Z,99718.06
2018-05-10T20:34:28.718Z,99718.99
2018-05-10T20:36:55.074Z,99722.69
2018-05-10T20:39:21.384Z,99723.25
2018-05-10T20:41:47.847Z,99731.03
2018-05-10T20:44:14.400Z,99723.48
2018-05-10T20:46:41.695Z,99721.80
2018-05-10T20:49:08.770Z,99721.95
2018-05-10T20:51:35.204Z,99719.28
2018-05-10T20:54:02.415Z,99721.05
2018-05-10T20:56:29.612Z,99725.49
2018-05-10T20:58:55.905Z,99739.26
2018-05-10T21:01:23.336Z,99738.58
2018-05-10T21:03:49.729Z,99745.86
2018-05-10T21:06:16.035Z,99756.23
2018-05-10T21:08:42.335Z,99760.53
2018-05-10T21:11:08.648Z,99761.94
2018-05-10T21:13:35.101Z,99752.51
2018-05-10T21:16:01.520Z,99760.35
2018-05-10T21:18:27.921Z,99768.21
2018-05-10T21:20:54.213Z,99776.38
2018-05-10T21:23:21.263Z,99778.45
2018-05-10T21:25:48.307Z,99780.64
2018-05-10T21:28:14.613Z,99782.64
2018-05-10T21:30:40.941Z,99778.16
2018-05-10T21:33:07.322Z,99770.85
2018-05-10T21:35:33.596Z,99771.07
2018-05-10T21:37:59.924Z,99768.95
2018-05-10T21:40:26.490Z,99775.50
2018-05-10T21:42:53.846Z,99776.02
2018-05-10T21:45:20.126Z,99771.02
2018-05-10T21:47:54.378Z,99776.81
2018-05-10T21:53:33.590Z,99777.06
2018-05-10T21:56:12.840Z,99782.69
2018-05-10T21:58:39.254Z,99783.61
2018-05-10T22:01:05.574Z,99787.77
2018-05-10T22:03:32.011Z,99787.87
2018-05-10T22:05:58.352Z,99793.42
2018-05-10T22:08:24.828Z,99780.63
2018-05-10T22:10:51.163Z,99785.84
2018-05-10T22:13:17.543Z,99776.91
2018-05-10T22:15:43.883Z,99790.99
2018-05-10T22:18:10.333Z,99780.80
2018-05-10T22:20:36.664Z,99794.38
2018-05-10T22:23:03.019Z,99793.62
2018-05-10T22:25:29.305Z,99791.41
2018-05-10T22:27:55.628Z,99800.25
2018-05-10T22:30:21.988Z,99807.21
2018-05-10T22:32:48.300Z,99811.26
2018-05-10T22:35:14.641Z,99805.41
2018-05-10T22:37:40.916Z,99810.36
2018-05-10T22:40:07.214Z,99801.11
2018-05-10T22:42:33.551Z,99799.71
2018-05-10T22:44:59.936Z,99820.47
2018-05-10T22:47:27.002Z,99817.24
2018-05-10T22:49:53.395Z,99821.45
2018-05-10T22:52:19.656Z,99826.58
2018-05-10T22:54:46.294Z,99820.19
2018-05-10T22:57:12.585Z,99815.28
2018-05-10T22:59:38.906Z,99814.88
2018-05-10T23:02:05.213Z,99809.46
2018-05-10T23:04:31.524Z,99799.69
2018-05-10T23:06:57.814Z,99831.17
2018-05-10T23:09:24.131Z,99844.89
2018-05-10T23:11:50.426Z,99849.86
2018-05-10T23:14:16.740Z,99851.41
2018-05-10T23:16:43.118Z,99863.95
2018-05-10T23:19:09.504Z,99863.13
2018-05-10T23:21:35.873Z,99867.51
2018-05-10T23:24:02.193Z,99871.18
2018-05-10T23:26:28.515Z,99873.95
2018-05-10T23:28:54.833Z,99869.56
2018-05-10T23:31:28.086Z,99880.48
2018-05-10T23:33:54.415Z,99884.46
2018-05-10T23:36:20.703Z,99890.84
2018-05-10T23:38:47.001Z,99890.88
2018-05-10T23:41:14.063Z,99900.22
2018-05-10T23:43:40.352Z,99901.14
2018-05-10T23:46:06.668Z,99909.28
2018-05-10T23:48:32.948Z,99910.91
2018-05-10T23:50:59.309Z,99908.79
2018-05-10T23:53:25.605Z,99909.50
2018-05-10T23:55:52.684Z,99911.45
2018-05-10T23:58:18.999Z,99911.13
